createdAt,value
2022-10-01T00:02:20.747Z,1.80
2022-10-01T00:04:48.809Z,1.40
2022-10-01T00:07:17.508Z,1.73
2022-10-01T00:09:45.585Z,1.70
2022-10-01T00:12:16.710Z,1.77
2022-10-01T00:14:45.095Z,1.80
2022-10-01T00:17:14.589Z,1.77
2022-10-01T00:19:42.648Z,1.52
2022-10-01T00:22:10.697Z,1.63
2022-10-01T00:24:38.721Z,1.52
2022-10-01T00:27:06.826Z,1.40
2022-10-01T00:29:35.751Z,1.67
2022-10-01T00:32:03.861Z,1.70
2022-10-01T00:34:33.327Z,1.70
2022-10-01T00:37:01.326Z,1.98
2022-10-01T00:42:03.701Z,2.35
2022-10-01T00:44:34.797Z,1.95
2022-10-01T00:47:10.714Z,1.95
2022-10-01T00:49:41.227Z,1.63
2022-10-01T00:52:17.017Z,1.40
2022-10-01T00:54:48.040Z,1.50
2022-10-01T00:57:19.832Z,1.67
2022-10-01T00:59:48.740Z,2.05
2022-10-01T01:02:16.817Z,1.98
2022-10-01T01:04:46.216Z,1.85
2022-10-01T01:07:14.553Z,1.73
2022-10-01T01:09:46.980Z,1.80
2022-10-01T01:12:26.504Z,1.83
2022-10-01T01:15:05.940Z,1.52
2022-10-01T01:17:41.059Z,2.10
2022-10-01T01:20:34.796Z,1.48
2022-10-01T01:23:14.371Z,1.77
2022-10-01T01:25:48.654Z,1.90
2022-10-01T01:28:25.330Z,2.00
2022-10-01T01:30:59.124Z,1.80
2022-10-01T01:33:31.282Z,2.10
2022-10-01T01:36:04.587Z,1.80
2022-10-01T01:38:37.866Z,1.90
2022-10-01T01:41:08.186Z,1.63
2022-10-01T01:43:40.785Z,1.90
2022-10-01T01:46:11.641Z,2.00
2022-10-01T01:48:42.038Z,1.90
2022-10-01T01:51:13.455Z,1.73
2022-10-01T01:53:42.265Z,1.70
2022-10-01T01:56:11.017Z,1.85
2022-10-01T01:58:40.966Z,1.52
2022-10-01T02:01:10.247Z,1.73
2022-10-01T02:03:38.263Z,1.73
2022-10-01T02:06:16.975Z,2.00
2022-10-01T02:08:52.291Z,1.77
2022-10-01T02:11:26.187Z,1.60
2022-10-01T02:14:08.050Z,2.10
2022-10-01T02:16:48.466Z,1.70
2022-10-01T02:19:24.516Z,1.38
2022-10-01T02:22:00.708Z,1.75
2022-10-01T02:24:36.086Z,1.42
2022-10-01T02:27:09.991Z,1.80
2022-10-01T02:29:40.656Z,1.88
2022-10-01T02:32:10.617Z,1.73
2022-10-01T02:34:40.120Z,1.95
2022-10-01T02:37:10.198Z,1.80
2022-10-01T02:39:42.397Z,1.80
2022-10-01T02:42:14.110Z,2.20
2022-10-01T02:44:45.710Z,1.65
2022-10-01T02:47:19.719Z,1.55
2022-10-01T02:49:49.231Z,1.70
2022-10-01T02:52:26.126Z,1.90
2022-10-01T02:54:58.577Z,1.48
2022-10-01T02:57:27.637Z,1.75
2022-10-01T03:00:00.209Z,1.70
2022-10-01T03:02:29.634Z,1.52
2022-10-01T03:04:58.283Z,1.52
2022-10-01T03:07:27.339Z,1.77
2022-10-01T03:09:55.612Z,2.00
2022-10-01T03:12:24.623Z,1.58
2022-10-01T03:14:54.117Z,1.80
2022-10-01T03:17:23.486Z,1.60
2022-10-01T03:19:51.526Z,1.80
2022-10-01T03:22:22.954Z,2.10
2022-10-01T03:24:51.050Z,1.83
2022-10-01T03:27:19.793Z,2.30
2022-10-01T03:29:48.578Z,2.40
2022-10-01T03:32:17.016Z,2.00
2022-10-01T03:34:46.791Z,2.28
2022-10-01T03:37:15.158Z,2.40
2022-10-01T03:39:43.463Z,2.38
2022-10-01T03:42:11.459Z,2.58
2022-10-01T03:44:39.487Z,2.75
2022-10-01T03:47:07.471Z,2.60
2022-10-01T03:49:35.529Z,2.08
2022-10-01T03:52:06.585Z,2.25
2022-10-01T03:54:35.055Z,2.30
2022-10-01T03:57:03.674Z,2.80
2022-10-01T03:59:31.985Z,2.55
2022-10-01T04:02:00.115Z,2.17
2022-10-01T04:04:29.454Z,2.35
2022-10-01T04:06:57.525Z,2.67
2022-10-01T04:09:27.323Z,2.40
2022-10-01T04:11:55.346Z,2.47
2022-10-01T04:14:23.328Z,3.35
2022-10-01T04:16:52.795Z,2.58
2022-10-01T04:19:21.135Z,3.03
2022-10-01T04:21:49.475Z,2.13
2022-10-01T04:24:17.470Z,2.65
2022-10-01T04:26:46.878Z,2.53
2022-10-01T04:29:14.948Z,2.47
2022-10-01T04:31:42.981Z,2.35
2022-10-01T04:34:11.298Z,2.60
2022-10-01T04:36:39.367Z,2.00
2022-10-01T04:39:08.235Z,3.03
2022-10-01T04:41:36.461Z,2.33
2022-10-01T04:44:06.659Z,2.30
2022-10-01T04:46:34.968Z,2.95
2022-10-01T04:49:03.022Z,2.70
2022-10-01T04:51:31.669Z,2.63
2022-10-01T04:53:59.824Z,2.30
2022-10-01T04:56:28.162Z,2.83
2022-10-01T04:58:56.138Z,2.50
2022-10-01T05:01:25.595Z,2.40
2022-10-01T05:03:54.201Z,2.45
2022-10-01T05:06:22.587Z,2.42
2022-10-01T05:08:50.609Z,2.30
2022-10-01T05:11:18.699Z,2.30
2022-10-01T05:13:46.769Z,3.00
2022-10-01T05:16:14.895Z,2.63
2022-10-01T05:18:44.624Z,2.30
2022-10-01T05:21:15.536Z,7.13
2022-10-01T05:23:43.519Z,3.30
2022-10-01T05:26:11.890Z,2.53
2022-10-01T05:28:43.290Z,2.40
2022-10-01T05:31:12.455Z,2.20
2022-10-01T05:33:41.364Z,2.78
2022-10-01T05:36:10.882Z,2.40
2022-10-01T05:38:39.280Z,2.80
2022-10-01T05:41:07.512Z,2.40
2022-10-01T05:43:36.328Z,2.63
2022-10-01T05:46:05.883Z,2.13
2022-10-01T05:48:36.888Z,2.60
2022-10-01T05:51:06.796Z,2.78
2022-10-01T05:53:37.995Z,2.28
2022-10-01T05:56:06.920Z,2.10
2022-10-01T05:58:35.187Z,2.20
2022-10-01T06:01:04.198Z,2.33
2022-10-01T06:03:32.471Z,2.33
2022-10-01T06:06:00.881Z,2.10
2022-10-01T06:08:28.893Z,2.17
2022-10-01T06:11:03.038Z,1.98
2022-10-01T06:13:32.086Z,2.05
2022-10-01T06:16:00.169Z,2.05
2022-10-01T06:18:28.766Z,2.00
2022-10-01T06:20:59.009Z,2.70
2022-10-01T06:23:27.481Z,1.77
2022-10-01T06:25:55.527Z,2.05
2022-10-01T06:28:25.033Z,2.17
2022-10-01T06:30:53.164Z,1.90
2022-10-01T06:33:21.647Z,2.30
2022-10-01T06:35:51.093Z,2.53
2022-10-01T06:38:20.959Z,1.85
2022-10-01T06:40:53.944Z,2.22
2022-10-01T06:43:22.166Z,2.20
2022-10-01T06:45:51.851Z,2.30
2022-10-01T06:48:20.836Z,2.75
2022-10-01T06:50:50.514Z,2.13
2022-10-01T06:53:19.101Z,2.15
2022-10-01T06:55:47.550Z,2.55
2022-10-01T06:58:17.857Z,2.25
2022-10-01T07:00:47.264Z,2.00
2022-10-01T07:03:18.832Z,2.50
2022-10-01T07:05:47.823Z,1.65
2022-10-01T07:08:16.174Z,2.05
2022-10-01T07:10:44.319Z,1.33
2022-10-01T07:13:14.354Z,1.90
2022-10-01T07:15:42.450Z,1.13
2022-10-01T07:18:10.900Z,1.05
2022-10-01T07:20:41.515Z,1.55
2022-10-01T07:23:12.769Z,1.48
2022-10-01T07:25:42.047Z,2.30
2022-10-01T07:28:17.008Z,1.90
2022-10-01T07:30:48.166Z,2.15
2022-10-01T07:33:18.998Z,1.98
2022-10-01T07:35:48.388Z,1.60
2022-10-01T07:38:16.736Z,2.20
2022-10-01T07:40:45.147Z,1.65
2022-10-01T07:43:14.650Z,1.70
2022-10-01T07:45:43.062Z,2.08
2022-10-01T07:48:11.165Z,1.10
2022-10-01T07:50:39.235Z,2.03
2022-10-01T07:53:08.617Z,1.55
2022-10-01T07:55:36.655Z,1.23
2022-10-01T07:58:05.558Z,1.60
2022-10-01T08:00:36.256Z,1.63
2022-10-01T08:03:04.741Z,1.48
2022-10-01T08:05:34.211Z,1.30
2022-10-01T08:08:03.869Z,1.55
2022-10-01T08:10:36.020Z,1.67
2022-10-01T08:13:08.818Z,1.45
2022-10-01T08:15:37.489Z,1.50
2022-10-01T08:18:05.655Z,1.10
2022-10-01T08:20:33.790Z,1.38
2022-10-01T08:23:05.621Z,1.33
2022-10-01T08:25:35.266Z,1.17
2022-10-01T08:28:03.589Z,1.20
2022-10-01T08:30:32.429Z,1.05
2022-10-01T08:33:02.144Z,1.33
2022-10-01T08:35:31.250Z,1.13
2022-10-01T08:38:03.087Z,0.77
2022-10-01T08:40:31.675Z,1.13
2022-10-01T08:43:06.366Z,0.95
2022-10-01T08:45:47.113Z,0.90
2022-10-01T08:48:22.239Z,0.60
2022-10-01T08:50:54.389Z,0.98
2022-10-01T08:53:37.580Z,1.10
2022-10-01T08:56:07.994Z,0.88
2022-10-01T08:58:47.566Z,0.80
2022-10-01T09:01:16.235Z,1.02
2022-10-01T09:03:44.368Z,0.85
2022-10-01T09:06:20.542Z,1.00
2022-10-01T09:09:08.863Z,1.08
2022-10-01T09:11:50.449Z,0.70
2022-10-01T09:14:41.272Z,0.73
2022-10-01T09:17:17.418Z,0.90
2022-10-01T09:20:02.679Z,0.70
2022-10-01T09:22:39.468Z,0.68
2022-10-01T09:25:18.260Z,0.70
2022-10-01T09:27:47.718Z,0.80
2022-10-01T09:30:21.477Z,0.52
2022-10-01T09:32:54.700Z,0.50
2022-10-01T09:35:35.098Z,0.60
2022-10-01T09:38:09.094Z,0.60
2022-10-01T09:40:42.776Z,0.70
2022-10-01T09:43:13.003Z,0.40
2022-10-01T09:45:42.796Z,0.30
2022-10-01T09:48:25.073Z,0.70
2022-10-01T09:50:58.314Z,0.70
2022-10-01T09:53:33.878Z,0.85
2022-10-01T09:56:06.322Z,0.60
2022-10-01T09:58:39.965Z,0.70
2022-10-01T10:01:19.113Z,0.75
2022-10-01T10:03:56.528Z,0.70
2022-10-01T10:06:29.409Z,0.40
2022-10-01T10:09:00.035Z,0.73
2022-10-01T10:11:31.431Z,0.65
2022-10-01T10:14:02.840Z,0.63
2022-10-01T10:16:35.940Z,0.57
2022-10-01T10:19:10.351Z,1.00
2022-10-01T10:21:38.970Z,0.70
2022-10-01T10:24:22.943Z,0.80
2022-10-01T10:26:56.721Z,0.98
2022-10-01T10:29:31.014Z,0.73
2022-10-01T10:32:04.041Z,0.75
2022-10-01T10:34:35.170Z,0.50
2022-10-01T10:37:07.536Z,0.90
2022-10-01T10:39:39.130Z,0.47
2022-10-01T10:42:08.574Z,0.80
2022-10-01T10:44:40.272Z,0.60
2022-10-01T10:47:14.565Z,0.70
2022-10-01T10:49:47.446Z,0.60
2022-10-01T10:52:25.288Z,0.60
2022-10-01T10:54:54.033Z,0.50
2022-10-01T10:57:27.902Z,0.50
2022-10-01T10:59:57.528Z,0.43
2022-10-01T11:02:30.058Z,0.50
2022-10-01T11:05:01.493Z,0.82
2022-10-01T11:07:30.398Z,0.70
2022-10-01T11:10:14.122Z,0.63
2022-10-01T11:12:57.350Z,0.50
2022-10-01T11:15:42.327Z,0.57
2022-10-01T11:18:38.759Z,0.40
2022-10-01T11:21:24.321Z,0.45
2022-10-01T11:24:16.042Z,0.40
2022-10-01T11:26:55.371Z,0.77
2022-10-01T11:29:35.592Z,0.70
2022-10-01T11:32:11.180Z,0.55
2022-10-01T11:35:12.375Z,0.73
2022-10-01T11:38:00.282Z,0.57
2022-10-01T11:40:34.299Z,0.80
2022-10-01T11:43:10.429Z,0.70
2022-10-01T11:45:44.442Z,0.50
2022-10-01T11:48:18.747Z,0.50
2022-10-01T11:50:50.231Z,0.40
2022-10-01T11:53:23.801Z,0.63
2022-10-01T11:56:16.378Z,0.50
2022-10-01T11:58:54.795Z,0.60
2022-10-01T12:01:39.011Z,0.70
2022-10-01T12:04:18.729Z,0.60
2022-10-01T12:06:55.321Z,0.60
2022-10-01T12:09:30.838Z,0.70
2022-10-01T12:12:03.677Z,0.68
2022-10-01T12:14:39.314Z,0.73
2022-10-01T12:17:14.326Z,0.60
2022-10-01T12:19:46.521Z,0.70
2022-10-01T12:22:24.366Z,0.80
2022-10-01T12:24:54.209Z,0.90
2022-10-01T12:27:42.740Z,0.70
2022-10-01T12:30:13.820Z,0.52
2022-10-01T12:33:17.707Z,1.05
2022-10-01T12:35:58.251Z,0.70
2022-10-01T12:38:47.228Z,0.65
2022-10-01T12:41:32.479Z,0.70
2022-10-01T12:44:24.141Z,1.08
2022-10-01T12:47:05.789Z,0.80
2022-10-01T12:49:40.072Z,0.90
2022-10-01T12:52:16.350Z,1.20
2022-10-01T12:55:12.623Z,0.80
2022-10-01T12:57:49.219Z,0.90
2022-10-01T13:00:20.317Z,0.77
2022-10-01T13:03:18.726Z,1.27
2022-10-01T13:05:59.301Z,1.33
2022-10-01T13:08:43.972Z,1.13
2022-10-01T13:11:26.067Z,1.08
2022-10-01T13:13:56.175Z,1.10
2022-10-01T13:16:31.451Z,0.98
2022-10-01T13:19:05.506Z,1.00
2022-10-01T13:21:47.453Z,1.10
2022-10-01T13:24:21.359Z,1.10
2022-10-01T13:26:56.405Z,1.50
2022-10-01T13:29:35.894Z,1.38
2022-10-01T13:32:05.473Z,0.95
2022-10-01T13:34:38.419Z,0.90
2022-10-01T13:37:18.269Z,1.00
2022-10-01T13:39:47.399Z,1.27
2022-10-01T13:42:24.667Z,1.10
2022-10-01T13:44:56.477Z,1.13
2022-10-01T13:47:26.313Z,1.20
2022-10-01T13:50:00.528Z,1.00
2022-10-01T13:52:28.803Z,1.20
2022-10-01T13:54:58.082Z,1.02
2022-10-01T13:57:35.327Z,1.00
2022-10-01T14:00:22.411Z,1.02
2022-10-01T14:03:04.040Z,1.08
2022-10-01T14:05:37.591Z,1.20
2022-10-01T14:08:13.431Z,0.90
2022-10-01T14:11:05.942Z,1.13
2022-10-01T14:14:01.022Z,1.08
2022-10-01T14:16:30.163Z,1.10
2022-10-01T14:18:58.214Z,1.17
2022-10-01T14:21:45.697Z,1.10
2022-10-01T14:24:24.966Z,0.95
2022-10-01T14:26:55.971Z,1.38
2022-10-01T14:29:39.793Z,1.20
2022-10-01T14:32:20.934Z,1.10
2022-10-01T14:35:00.099Z,1.40
2022-10-01T14:37:30.038Z,0.95
2022-10-01T14:40:08.987Z,1.25
2022-10-01T14:42:37.402Z,0.90
2022-10-01T14:45:18.058Z,1.27
2022-10-01T14:47:48.866Z,1.25
2022-10-01T14:50:23.371Z,1.55
2022-10-01T14:52:54.923Z,1.38
2022-10-01T14:55:25.030Z,1.70
2022-10-01T14:57:56.155Z,1.10
2022-10-01T15:00:27.964Z,1.17
2022-10-01T15:03:04.949Z,1.40
2022-10-01T15:05:35.677Z,1.50
2022-10-01T15:08:13.378Z,1.60
2022-10-01T15:10:46.388Z,1.60
2022-10-01T15:13:22.055Z,1.60
2022-10-01T15:15:51.821Z,1.70
2022-10-01T15:18:21.054Z,1.42
2022-10-01T15:20:58.094Z,1.02
2022-10-01T15:23:28.844Z,0.60
2022-10-01T15:25:59.749Z,0.52
2022-10-01T15:28:31.982Z,0.52
2022-10-01T15:31:03.655Z,0.60
2022-10-01T15:33:34.906Z,0.75
2022-10-01T15:36:06.443Z,0.60
2022-10-01T15:38:35.325Z,0.75
2022-10-01T15:41:30.638Z,0.50
2022-10-01T15:43:56.031Z,0.60
2022-10-01T15:46:33.283Z,0.80
2022-10-01T15:49:21.255Z,0.60
2022-10-01T15:52:07.728Z,1.00
2022-10-01T15:54:36.614Z,0.57
2022-10-01T15:57:06.188Z,0.60
2022-10-01T15:59:35.678Z,0.60
2022-10-01T16:02:10.700Z,0.40
2022-10-01T16:04:39.288Z,0.73
2022-10-01T16:07:07.310Z,0.57
2022-10-01T16:09:35.711Z,0.50
2022-10-01T16:12:07.233Z,0.63
2022-10-01T16:14:39.557Z,0.43
2022-10-01T16:17:29.544Z,0.55
2022-10-01T16:20:00.268Z,0.50
2022-10-01T16:22:31.795Z,0.40
2022-10-01T16:25:01.410Z,0.30
2022-10-01T16:27:32.726Z,0.50
2022-10-01T16:30:05.678Z,0.43
2022-10-01T16:32:36.077Z,0.47
2022-10-01T16:35:20.343Z,0.50
2022-10-01T16:37:50.444Z,0.35
2022-10-01T16:40:19.515Z,0.50
2022-10-01T16:42:49.428Z,0.40
2022-10-01T16:45:20.480Z,0.40
2022-10-01T16:47:49.902Z,0.50
2022-10-01T16:50:22.642Z,0.40
2022-10-01T16:52:54.128Z,0.57
2022-10-01T16:55:24.878Z,0.50
2022-10-01T16:57:54.846Z,0.60
2022-10-01T17:00:25.231Z,0.60
2022-10-01T17:02:54.897Z,0.75
2022-10-01T17:05:26.583Z,0.80
2022-10-01T17:07:57.679Z,0.60
2022-10-01T17:10:25.886Z,0.70
2022-10-01T17:12:55.635Z,0.70
2022-10-01T17:15:27.047Z,0.70
2022-10-01T17:17:57.839Z,0.93
2022-10-01T17:20:28.599Z,0.60
2022-10-01T17:22:57.983Z,0.80
2022-10-01T17:25:31.019Z,0.80
2022-10-01T17:27:59.769Z,0.85
2022-10-01T17:30:29.395Z,0.98
2022-10-01T17:32:59.941Z,0.88
2022-10-01T17:35:28.938Z,1.10
2022-10-01T17:37:57.327Z,0.93
2022-10-01T17:40:25.591Z,1.08
2022-10-01T17:42:53.618Z,1.23
2022-10-01T17:45:21.715Z,0.77
2022-10-01T17:47:51.451Z,1.25
2022-10-01T17:50:20.977Z,0.93
2022-10-01T17:52:49.478Z,1.05
2022-10-01T17:55:19.833Z,1.10
2022-10-01T17:57:47.915Z,1.23
2022-10-01T18:00:16.030Z,1.25
2022-10-01T18:02:44.416Z,1.02
2022-10-01T18:05:14.854Z,1.02
2022-10-01T18:07:45.038Z,0.95
2022-10-01T18:10:14.466Z,1.40
2022-10-01T18:12:42.671Z,1.00
2022-10-01T18:15:11.001Z,1.10
2022-10-01T18:17:43.473Z,0.80
2022-10-01T18:20:19.798Z,0.93
2022-10-01T18:22:49.334Z,0.85
2022-10-01T18:25:19.311Z,0.80
2022-10-01T18:27:50.076Z,0.88
2022-10-01T18:30:18.840Z,1.02
2022-10-01T18:32:50.621Z,0.93
2022-10-01T18:35:26.502Z,0.70
2022-10-01T18:37:59.045Z,1.10
2022-10-01T18:40:30.044Z,1.42
2022-10-01T18:43:03.308Z,1.23
2022-10-01T18:45:56.870Z,1.17
2022-10-01T18:48:47.427Z,1.20
2022-10-01T18:51:24.908Z,1.45
2022-10-01T18:54:04.970Z,0.95
2022-10-01T18:56:35.169Z,1.20
2022-10-01T18:59:29.174Z,1.15
2022-10-01T19:02:33.424Z,1.30
2022-10-01T19:05:26.813Z,1.17
2022-10-01T19:08:04.745Z,1.02
2022-10-01T19:10:38.605Z,1.30
2022-10-01T19:13:16.088Z,1.00
2022-10-01T19:15:57.324Z,1.38
2022-10-01T19:18:43.612Z,1.20
2022-10-01T19:21:24.031Z,1.20
2022-10-01T19:24:22.526Z,1.05
2022-10-01T19:26:59.021Z,0.95
2022-10-01T19:29:40.230Z,0.90
2022-10-01T19:32:12.161Z,0.95
2022-10-01T19:34:45.506Z,1.25
2022-10-01T19:37:20.301Z,1.02
2022-10-01T19:39:51.513Z,1.20
2022-10-01T19:42:24.562Z,1.30
2022-10-01T19:44:59.619Z,1.30
2022-10-01T19:47:37.589Z,1.05
2022-10-01T19:50:18.188Z,1.25
2022-10-01T19:52:50.831Z,1.35
2022-10-01T19:55:22.753Z,1.08
2022-10-01T19:57:53.040Z,1.40
2022-10-01T20:00:23.402Z,1.00
2022-10-01T20:02:58.247Z,1.50
2022-10-01T20:05:30.224Z,1.15
2022-10-01T20:08:04.221Z,1.25
2022-10-01T20:10:39.367Z,1.13
2022-10-01T20:13:29.082Z,1.30
2022-10-01T20:16:04.754Z,1.13
2022-10-01T20:18:41.115Z,1.10
2022-10-01T20:21:22.954Z,1.17
2022-10-01T20:23:58.100Z,1.38
2022-10-01T20:26:36.857Z,1.00
2022-10-01T20:29:17.181Z,1.20
2022-10-01T20:31:52.462Z,1.38
2022-10-01T20:34:28.600Z,1.17
2022-10-01T20:37:09.974Z,1.10
2022-10-01T20:39:42.944Z,0.80
2022-10-01T20:42:16.928Z,1.08
2022-10-01T20:44:46.526Z,1.10
2022-10-01T20:47:22.998Z,1.10
2022-10-01T20:49:57.247Z,1.05
2022-10-01T20:52:32.349Z,0.90
2022-10-01T20:55:04.833Z,0.75
2022-10-01T20:57:35.577Z,1.00
2022-10-01T21:00:09.291Z,0.82
2022-10-01T21:02:43.533Z,1.00
2022-10-01T21:05:18.920Z,1.00
2022-10-01T21:07:55.543Z,0.90
2022-10-01T21:10:27.742Z,1.17
2022-10-01T21:13:02.138Z,1.52
2022-10-01T21:15:42.440Z,0.90
2022-10-01T21:18:17.570Z,1.15
2022-10-01T21:21:03.254Z,0.98
2022-10-01T21:23:40.835Z,0.82
2022-10-01T21:26:19.249Z,1.10
2022-10-01T21:29:16.084Z,0.77
2022-10-01T21:31:55.227Z,0.90
2022-10-01T21:34:33.427Z,0.95
2022-10-01T21:37:06.133Z,1.08
2022-10-01T21:39:40.879Z,1.10
2022-10-01T21:42:15.675Z,1.17
2022-10-01T21:45:05.571Z,1.10
2022-10-01T21:47:46.249Z,1.33
2022-10-01T21:50:23.366Z,1.02
2022-10-01T21:53:16.730Z,1.20
2022-10-01T21:56:04.094Z,1.35
2022-10-01T21:58:44.239Z,1.02
2022-10-01T22:01:25.079Z,1.08
2022-10-01T22:04:03.519Z,2.05
2022-10-01T22:06:36.923Z,1.15
2022-10-01T22:09:12.890Z,1.25
2022-10-01T22:11:46.911Z,1.58
2022-10-01T22:14:17.590Z,1.30
2022-10-01T22:16:52.273Z,0.98
2022-10-01T22:19:28.559Z,1.58
2022-10-01T22:22:04.282Z,1.23
2022-10-01T22:24:37.429Z,1.60
2022-10-01T22:27:12.361Z,1.40
2022-10-01T22:29:45.508Z,1.10
2022-10-01T22:32:17.257Z,1.27
2022-10-01T22:34:54.342Z,1.45
2022-10-01T22:37:27.719Z,1.52
2022-10-01T22:40:02.259Z,1.10
2022-10-01T22:42:35.492Z,0.90
2022-10-01T22:45:13.035Z,1.50
2022-10-01T22:47:59.033Z,1.10
2022-10-01T22:50:38.181Z,1.33
2022-10-01T22:53:20.619Z,1.00
2022-10-01T22:55:54.417Z,1.00
2022-10-01T22:58:39.581Z,1.15
2022-10-01T23:01:16.291Z,1.35
2022-10-01T23:04:06.174Z,1.23
2022-10-01T23:06:42.158Z,1.85
2022-10-01T23:09:16.564Z,1.20
2022-10-01T23:11:53.343Z,1.58
2022-10-01T23:14:39.155Z,1.40
2022-10-01T23:17:13.622Z,1.23
2022-10-01T23:19:54.339Z,1.17
2022-10-01T23:22:39.971Z,1.27
2022-10-01T23:25:17.848Z,1.08
2022-10-01T23:28:01.525Z,0.98
2022-10-01T23:30:37.902Z,1.00
2022-10-01T23:33:25.776Z,1.50
2022-10-01T23:36:04.579Z,1.00
2022-10-01T23:38:52.766Z,1.38
2022-10-01T23:41:26.434Z,1.30
2022-10-01T23:44:08.989Z,0.93
2022-10-01T23:46:40.761Z,1.42
2022-10-01T23:49:15.194Z,1.13
2022-10-01T23:51:48.975Z,1.70
2022-10-01T23:54:25.419Z,1.40
2022-10-01T23:56:57.336Z,1.73
2022-10-01T23:59:29.454Z,1.40
